Time;durP1;ratioP1;P1;durP2;ratioP2;P2;SDS_P1;SDS_P2;PMS_P1;PMS_P2;Temp;Humidity;BMP_temperature;BMP_pressure;BME280_temperature;BME280_humidity;BME280_pressure;Samples;Min_cycle;Max_cycle;Signal;HPM_P1;HPM_P2
2022/04/09 00:00:23;;;;;;;0.68;0.00;;;0.20;99.90;;;;;;5035597;28;20036;-76
2022/04/09 00:02:49;;;;;;;0.10;0.10;;;0.20;99.90;;;;;;5034888;28;20383;-76
2022/04/09 00:05:16;;;;;;;0.20;0.20;;;0.20;99.90;;;;;;5036107;28;20037;-76
2022/04/09 00:07:42;;;;;;;0.10;0.10;;;0.30;99.90;;;;;;5033955;28;20390;-78
2022/04/09 00:10:10;;;;;;;0.35;0.30;;;0.30;99.90;;;;;;5034963;28;20030;-76
2022/04/09 00:12:37;;;;;;;0.45;0.25;;;0.30;99.90;;;;;;5035073;28;20083;-76
2022/04/09 00:15:03;;;;;;;1.00;0.30;;;0.30;99.90;;;;;;5034902;28;20029;-76
2022/04/09 00:17:35;;;;;;;0.82;0.70;;;0.30;99.90;;;;;;5035100;28;20120;-77
2022/04/09 00:20:00;;;;;;;0.47;0.40;;;0.40;99.90;;;;;;5034849;28;20129;-76
2022/04/09 00:22:26;;;;;;;0.47;0.45;;;0.50;99.90;;;;;;5035875;28;20534;-77
2022/04/09 00:24:51;;;;;;;0.40;0.40;;;0.50;99.90;;;;;;5038684;28;20028;-76
2022/04/09 00:27:17;;;;;;;1.08;0.40;;;0.50;99.90;;;;;;5054259;28;20029;-76
2022/04/09 00:29:43;;;;;;;0.73;0.60;;;0.50;99.90;;;;;;5053880;28;20584;-78
2022/04/09 00:32:08;;;;;;;0.50;0.50;;;0.50;99.90;;;;;;5054300;28;20025;-76
2022/04/09 00:34:34;;;;;;;0.73;0.73;;;0.50;99.90;;;;;;5053986;28;20029;-76
2022/04/09 00:36:59;;;;;;;0.65;0.65;;;0.60;99.90;;;;;;5053580;28;20386;-77
2022/04/09 00:39:25;;;;;;;0.70;0.68;;;0.60;99.90;;;;;;5053228;28;20116;-76
2022/04/09 00:41:51;;;;;;;1.10;0.77;;;0.60;99.90;;;;;;5052660;28;20068;-77
2022/04/09 00:44:17;;;;;;;0.70;0.70;;;0.70;99.90;;;;;;5054385;28;20033;-76
2022/04/09 00:46:44;;;;;;;0.70;0.70;;;0.70;99.90;;;;;;5037761;28;20026;-77
2022/04/09 00:49:10;;;;;;;0.95;0.95;;;0.70;99.90;;;;;;5033749;28;20041;-76
2022/04/09 00:51:39;;;;;;;1.00;1.00;;;0.70;99.90;;;;;;5034431;28;20171;-76
2022/04/09 00:54:06;;;;;;;0.68;0.68;;;0.70;99.90;;;;;;5032008;28;20069;-76
2022/04/09 00:56:33;;;;;;;1.17;0.50;;;0.70;99.90;;;;;;5034376;28;20114;-76
2022/04/09 00:59:03;;;;;;;0.50;0.50;;;0.70;99.90;;;;;;5032927;28;20040;-75
2022/04/09 01:01:32;;;;;;;0.73;0.57;;;0.70;99.90;;;;;;5034942;28;20037;-76
2022/04/09 01:03:59;;;;;;;0.50;0.45;;;0.70;99.90;;;;;;5033574;28;20040;-76
2022/04/09 01:06:24;;;;;;;0.50;0.50;;;0.70;99.90;;;;;;5033757;28;20463;-76
2022/04/09 01:08:50;;;;;;;0.40;0.40;;;0.70;99.90;;;;;;5032005;28;20037;-76
2022/04/09 01:11:16;;;;;;;0.57;0.50;;;0.70;99.90;;;;;;5036323;28;20531;-76
2022/04/09 01:13:44;;;;;;;0.70;0.60;;;0.70;99.90;;;;;;5037714;28;20422;-76
2022/04/09 01:16:09;;;;;;;1.33;0.60;;;0.70;99.90;;;;;;5049542;28;20026;-76
2022/04/09 01:18:36;;;;;;;1.83;0.52;;;0.70;99.90;;;;;;5052179;28;20033;-76
2022/04/09 01:21:04;;;;;;;0.70;0.70;;;0.80;99.90;;;;;;5051016;28;20029;-76
2022/04/09 01:23:30;;;;;;;0.88;0.88;;;0.80;99.90;;;;;;5053527;28;20040;-76
2022/04/09 01:26:00;;;;;;;1.00;0.90;;;0.80;99.90;;;;;;5056525;28;20040;-76
2022/04/09 01:28:26;;;;;;;2.47;1.25;;;0.80;99.90;;;;;;5034276;28;20028;-76
2022/04/09 01:30:52;;;;;;;1.20;1.10;;;0.80;99.90;;;;;;5031835;28;20397;-76
2022/04/09 01:33:18;;;;;;;1.52;1.42;;;0.80;99.90;;;;;;5034150;28;20391;-76
2022/04/09 01:35:45;;;;;;;1.98;1.52;;;0.70;99.90;;;;;;5033308;28;20030;-76
2022/04/09 01:38:11;;;;;;;2.50;1.90;;;0.80;99.90;;;;;;5034043;28;20224;-76
2022/04/09 01:40:37;;;;;;;1.90;1.80;;;0.80;99.90;;;;;;5033414;28;20029;-75
2022/04/09 01:43:03;;;;;;;2.20;1.88;;;0.80;99.90;;;;;;5033194;28;20883;-76
2022/04/09 01:45:29;;;;;;;2.80;1.92;;;0.80;99.90;;;;;;5033352;28;20029;-76
2022/04/09 01:47:55;;;;;;;3.92;1.90;;;0.80;99.90;;;;;;5031513;28;20032;-75
2022/04/09 01:50:23;;;;;;;2.67;2.25;;;1.00;99.90;;;;;;5033485;28;20025;-76
2022/04/09 01:52:49;;;;;;;3.10;2.63;;;1.00;99.90;;;;;;5032179;28;20060;-75
2022/04/09 01:55:14;;;;;;;5.05;2.13;;;0.90;99.90;;;;;;5033269;28;20471;-76
2022/04/09 01:57:40;;;;;;;2.38;2.17;;;1.00;99.90;;;;;;5032626;28;20557;-75
2022/04/09 02:00:09;;;;;;;3.38;2.28;;;1.00;99.90;;;;;;5032042;28;20105;-76
2022/04/09 02:02:34;;;;;;;3.45;2.47;;;1.00;99.90;;;;;;5030938;28;20034;-75
2022/04/09 02:05:00;;;;;;;4.80;3.33;;;1.00;99.90;;;;;;5030722;28;20327;-77
2022/04/09 02:07:27;;;;;;;2.80;2.50;;;1.00;99.90;;;;;;5032831;28;20033;-77
2022/04/09 02:09:53;;;;;;;9.95;3.58;;;1.00;99.90;;;;;;5030625;28;20025;-77
2022/04/09 02:12:19;;;;;;;4.53;3.58;;;0.90;99.90;;;;;;5031661;28;20026;-77
2022/04/09 02:14:45;;;;;;;4.95;3.08;;;0.90;99.90;;;;;;5032136;28;20175;-76
2022/04/09 02:17:11;;;;;;;5.15;3.13;;;0.90;99.90;;;;;;5032324;28;20116;-76
2022/04/09 02:19:36;;;;;;;4.13;3.08;;;1.00;99.90;;;;;;5032672;28;20030;-76
2022/04/09 02:22:02;;;;;;;4.32;3.03;;;1.10;99.90;;;;;;5030638;28;20032;-76
2022/04/09 02:24:28;;;;;;;3.78;2.80;;;1.10;99.90;;;;;;5032361;28;20030;-75
2022/04/09 02:26:54;;;;;;;4.78;3.55;;;1.10;99.90;;;;;;5031713;28;20102;-76
2022/04/09 02:29:20;;;;;;;5.32;3.47;;;1.10;99.90;;;;;;5031155;28;20021;-76
2022/04/09 02:31:45;;;;;;;5.40;3.15;;;1.10;99.90;;;;;;5032265;28;20042;-75
2022/04/09 02:34:11;;;;;;;6.15;3.70;;;1.10;99.90;;;;;;5031934;28;20470;-75
2022/04/09 02:36:36;;;;;;;6.35;4.13;;;1.00;99.90;;;;;;5032266;28;20033;-76
2022/04/09 02:39:03;;;;;;;6.00;3.72;;;1.10;99.90;;;;;;5031515;28;20108;-75
2022/04/09 02:41:29;;;;;;;6.68;4.50;;;1.10;99.90;;;;;;5032455;28;20041;-75
2022/04/09 02:43:55;;;;;;;6.68;4.32;;;1.20;99.90;;;;;;5031844;28;20027;-75
2022/04/09 02:46:21;;;;;;;6.57;3.65;;;1.20;99.90;;;;;;5045153;28;20039;-78
2022/04/09 02:48:47;;;;;;;7.25;4.32;;;1.20;99.90;;;;;;5051914;28;20087;-77
2022/04/09 02:51:13;;;;;;;5.20;4.25;;;1.20;99.90;;;;;;5051476;28;20028;-78
2022/04/09 02:53:39;;;;;;;6.68;4.43;;;1.20;99.90;;;;;;5051409;28;20041;-77
2022/04/09 02:56:05;;;;;;;6.97;4.38;;;1.20;99.90;;;;;;5050841;28;20099;-77
2022/04/09 02:58:31;;;;;;;7.10;4.20;;;1.20;99.90;;;;;;5051942;28;20052;-76
2022/04/09 03:00:57;;;;;;;6.07;4.88;;;1.20;99.90;;;;;;5049968;28;20471;-77
2022/04/09 03:03:22;;;;;;;5.15;3.97;;;1.30;99.90;;;;;;5051946;28;20102;-79
2022/04/09 03:05:48;;;;;;;4.25;3.85;;;1.40;99.90;;;;;;5051306;28;20040;-77
2022/04/09 03:08:14;;;;;;;5.35;3.63;;;1.30;99.90;;;;;;5052185;28;20025;-78
2022/04/09 03:10:39;;;;;;;6.15;4.60;;;1.30;99.90;;;;;;5052098;28;20021;-76
2022/04/09 03:13:05;;;;;;;5.80;4.40;;;1.30;99.90;;;;;;5050786;28;20722;-75
2022/04/09 03:15:31;;;;;;;5.18;3.60;;;1.30;99.90;;;;;;5051519;28;20033;-75
2022/04/09 03:17:57;;;;;;;5.15;3.60;;;1.40;99.90;;;;;;5050700;28;20474;-76
2022/04/09 03:20:22;;;;;;;4.03;3.60;;;1.40;99.90;;;;;;5052780;28;20025;-76
2022/04/09 03:22:49;;;;;;;4.60;2.80;;;1.50;99.90;;;;;;5057748;28;20471;-76
2022/04/09 03:25:15;;;;;;;6.05;3.72;;;1.50;99.90;;;;;;5058186;28;20032;-75
2022/04/09 03:27:41;;;;;;;4.47;3.70;;;1.50;99.90;;;;;;5057837;28;20037;-76
2022/04/09 03:30:08;;;;;;;5.10;3.50;;;1.50;99.90;;;;;;5057417;28;20035;-75
2022/04/09 03:32:36;;;;;;;8.25;4.05;;;1.50;99.90;;;;;;5056502;28;20033;-75
2022/04/09 03:35:06;;;;;;;4.97;4.22;;;1.50;99.90;;;;;;5057486;28;20072;-76
2022/04/09 03:37:35;;;;;;;5.93;4.93;;;1.50;99.90;;;;;;5056875;28;20116;-76
2022/04/09 03:40:04;;;;;;;6.07;4.70;;;1.50;99.90;;;;;;5057305;28;20251;-75
2022/04/09 03:42:30;;;;;;;7.45;5.07;;;1.50;99.90;;;;;;5058222;28;20025;-76
2022/04/09 03:44:55;;;;;;;6.88;5.10;;;1.50;99.90;;;;;;5056108;28;20074;-76
2022/04/09 03:47:21;;;;;;;7.35;5.75;;;1.50;99.90;;;;;;5038038;28;20374;-76
2022/04/09 03:49:47;;;;;;;9.38;5.78;;;1.60;99.90;;;;;;5038195;28;20037;-75
2022/04/09 03:52:13;;;;;;;11.15;6.15;;;1.50;99.90;;;;;;5037073;28;20448;-76
2022/04/09 03:54:39;;;;;;;10.10;6.78;;;1.60;99.90;;;;;;5038469;28;20045;-76
2022/04/09 03:57:05;;;;;;;11.85;8.73;;;1.60;99.90;;;;;;5039333;28;20040;-75
2022/04/09 03:59:31;;;;;;;12.88;8.55;;;1.70;99.90;;;;;;5037853;28;20026;-75
2022/04/09 04:01:57;;;;;;;16.58;9.70;;;1.70;99.90;;;;;;5037284;28;20552;-76
2022/04/09 04:04:23;;;;;;;16.10;10.60;;;1.70;99.90;;;;;;5038481;28;20029;-76
2022/04/09 04:06:49;;;;;;;15.73;10.20;;;1.70;99.90;;;;;;5037876;28;20025;-75
2022/04/09 04:09:16;;;;;;;16.13;9.63;;;1.70;99.90;;;;;;5019662;28;20025;-75
2022/04/09 04:11:44;;;;;;;19.20;11.10;;;1.80;99.90;;;;;;5037937;28;20030;-76
2022/04/09 04:14:10;;;;;;;19.98;10.93;;;1.90;99.90;;;;;;5038204;28;20442;-78
2022/04/09 04:16:36;;;;;;;17.50;11.38;;;2.00;99.90;;;;;;5038118;28;20034;-76
2022/04/09 04:19:01;;;;;;;17.95;11.63;;;1.90;99.90;;;;;;5037506;28;20525;-75
2022/04/09 04:21:27;;;;;;;16.90;11.48;;;2.00;99.90;;;;;;5037297;28;20071;-75
2022/04/09 04:23:53;;;;;;;16.05;10.75;;;2.00;99.90;;;;;;5036994;28;20029;-76
2022/04/09 04:26:19;;;;;;;14.05;11.23;;;2.00;99.90;;;;;;5037591;28;20028;-75
2022/04/09 04:28:51;;;;;;;19.50;12.10;;;1.90;99.90;;;;;;5037874;28;20033;-75
2022/04/09 04:31:18;;;;;;;19.85;12.48;;;1.80;99.90;;;;;;5037668;28;20068;-75
2022/04/09 04:33:44;;;;;;;20.52;11.90;;;1.80;99.90;;;;;;5034772;28;20032;-75
2022/04/09 04:36:10;;;;;;;22.05;12.70;;;1.80;99.90;;;;;;5033783;28;20030;-75
2022/04/09 04:38:36;;;;;;;21.45;13.27;;;1.80;99.90;;;;;;5034826;28;20060;-75
2022/04/09 04:41:04;;;;;;;19.27;11.85;;;1.80;99.90;;;;;;5034701;28;20040;-76
2022/04/09 04:43:30;;;;;;;27.80;13.93;;;1.70;99.90;;;;;;5035594;28;20040;-75
2022/04/09 04:45:56;;;;;;;20.45;13.00;;;1.60;99.90;;;;;;5044112;28;20104;-75
2022/04/09 04:48:21;;;;;;;19.65;11.90;;;1.60;99.90;;;;;;5054537;28;20036;-76
2022/04/09 04:50:47;;;;;;;21.67;13.15;;;1.60;99.90;;;;;;5053854;28;20033;-76
2022/04/09 04:53:13;;;;;;;20.98;13.20;;;1.60;99.90;;;;;;5053678;28;20041;-76
2022/04/09 04:55:39;;;;;;;21.83;12.98;;;1.60;99.90;;;;;;5052873;28;20466;-77
2022/04/09 04:58:04;;;;;;;22.70;13.13;;;1.60;99.90;;;;;;5055659;28;20036;-76
2022/04/09 05:00:31;;;;;;;23.25;12.15;;;1.60;99.90;;;;;;5057464;28;20456;-76
2022/04/09 05:02:58;;;;;;;20.17;12.60;;;1.60;99.90;;;;;;5062382;28;20025;-76
2022/04/09 05:05:24;;;;;;;19.48;12.07;;;1.60;99.90;;;;;;5064022;28;20036;-77
2022/04/09 05:07:51;;;;;;;21.67;13.73;;;1.50;99.90;;;;;;5073518;28;20031;-75
2022/04/09 05:10:19;;;;;;;21.50;14.18;;;1.50;99.90;;;;;;5070361;28;20051;-76
2022/04/09 05:12:45;;;;;;;21.13;13.32;;;1.50;99.90;;;;;;5056536;28;20040;-77
2022/04/09 05:15:13;;;;;;;18.23;12.05;;;1.60;99.90;;;;;;5033559;28;20474;-76
2022/04/09 05:17:39;;;;;;;24.25;11.65;;;1.60;99.90;;;;;;5033694;28;20032;-76
2022/04/09 05:20:10;;;;;;;18.90;12.55;;;1.60;99.90;;;;;;5042622;28;20021;-78
2022/04/09 05:22:43;;;;;;;24.42;13.35;;;1.60;99.90;;;;;;5033358;28;20040;-78
2022/04/09 05:25:13;;;;;;;19.48;12.25;;;1.70;99.90;;;;;;5031888;28;20465;-77
2022/04/09 05:27:39;;;;;;;22.67;12.77;;;1.70;99.90;;;;;;5033807;28;20044;-77
2022/04/09 05:30:06;;;;;;;20.38;11.48;;;1.70;99.90;;;;;;5032834;28;20034;-76
2022/04/09 05:32:31;;;;;;;19.73;11.80;;;1.70;99.90;;;;;;5033736;28;20033;-78
2022/04/09 05:34:57;;;;;;;18.38;11.57;;;1.70;99.90;;;;;;5033429;28;20080;-78
2022/04/09 05:37:23;;;;;;;16.88;11.93;;;1.80;99.90;;;;;;5033652;28;20029;-80
2022/04/09 05:39:49;;;;;;;26.52;13.50;;;1.80;99.90;;;;;;5033291;28;20033;-77
2022/04/09 05:42:14;;;;;;;18.98;11.18;;;1.80;99.90;;;;;;5032115;28;20196;-76
2022/04/09 05:44:40;;;;;;;19.80;11.07;;;1.90;99.90;;;;;;5033089;28;20052;-80
2022/04/09 05:47:06;;;;;;;19.75;11.13;;;2.00;99.90;;;;;;5051832;28;20032;-83
2022/04/09 05:49:32;;;;;;;16.35;11.05;;;2.00;99.90;;;;;;5049628;28;20042;-82
2022/04/09 05:51:58;;;;;;;14.98;10.18;;;2.10;99.90;;;;;;5041069;28;20021;-78
2022/04/09 05:54:24;;;;;;;17.45;9.77;;;2.10;99.90;;;;;;5043790;28;20048;-79
2022/04/09 05:56:51;;;;;;;16.83;9.85;;;2.20;99.90;;;;;;5041950;28;20056;-85
2022/04/09 05:59:16;;;;;;;14.18;8.73;;;2.30;99.90;;;;;;5042477;28;20026;-82
2022/04/09 06:01:42;;;;;;;15.60;8.98;;;2.40;99.90;;;;;;5042070;28;20041;-78
2022/04/09 06:04:08;;;;;;;15.15;8.18;;;2.40;99.90;;;;;;5048938;28;20032;-83
2022/04/09 06:06:34;;;;;;;13.20;8.85;;;2.40;99.90;;;;;;5052451;28;20451;-79
2022/04/09 06:08:59;;;;;;;14.43;9.40;;;2.40;99.90;;;;;;5046180;28;20036;-81
2022/04/09 06:11:26;;;;;;;16.27;9.07;;;2.50;99.90;;;;;;5041021;28;20040;-81
2022/04/09 06:13:51;;;;;;;12.52;8.02;;;2.50;99.90;;;;;;5043739;28;20027;-81
2022/04/09 06:16:17;;;;;;;11.98;7.05;;;2.60;99.90;;;;;;5046452;28;20112;-79
2022/04/09 06:18:43;;;;;;;13.45;7.72;;;2.70;99.90;;;;;;5043786;28;20166;-76
2022/04/09 06:21:09;;;;;;;12.65;8.27;;;2.70;99.90;;;;;;5042067;28;20486;-84
2022/04/09 06:23:36;;;;;;;11.30;6.70;;;2.70;99.90;;;;;;5032467;28;20025;-77
2022/04/09 06:26:01;;;;;;;12.07;7.47;;;2.70;99.90;;;;;;5043204;28;20036;-77
2022/04/09 06:28:27;;;;;;;14.07;7.32;;;2.70;99.90;;;;;;5048285;28;20033;-78
2022/04/09 06:30:53;;;;;;;15.48;7.68;;;2.70;99.90;;;;;;5052640;28;20465;-79
2022/04/09 06:33:20;;;;;;;11.40;7.45;;;2.70;99.90;;;;;;5051739;28;20025;-77
2022/04/09 06:35:47;;;;;;;12.63;6.88;;;2.80;99.90;;;;;;5052185;28;20037;-74
2022/04/09 06:38:13;;;;;;;9.27;6.63;;;2.90;99.90;;;;;;5051429;28;20025;-75
2022/04/09 06:40:39;;;;;;;11.70;6.70;;;2.90;99.90;;;;;;5052138;28;20542;-82
2022/04/09 06:43:05;;;;;;;11.20;6.65;;;3.10;99.90;;;;;;5046275;28;20108;-82
2022/04/09 06:45:31;;;;;;;13.38;7.75;;;3.10;99.90;;;;;;5042352;28;20026;-78
2022/04/09 06:47:56;;;;;;;14.30;6.65;;;3.20;99.90;;;;;;5046026;28;20043;-77
2022/04/09 06:50:22;;;;;;;15.82;6.47;;;3.30;99.90;;;;;;5051583;28;20064;-75
2022/04/09 06:52:48;;;;;;;11.40;5.82;;;3.40;99.90;;;;;;5051854;28;20053;-74
2022/04/09 06:55:13;;;;;;;8.48;5.43;;;3.50;99.90;;;;;;5050503;28;20037;-74
2022/04/09 06:57:41;;;;;;;12.60;6.15;;;3.60;99.90;;;;;;5039815;28;20100;-76
2022/04/09 07:00:13;;;;;;;9.93;5.35;;;3.60;99.90;;;;;;5050187;28;20060;-74
2022/04/09 07:02:39;;;;;;;10.95;5.50;;;3.70;99.90;;;;;;5051950;28;20433;-75
2022/04/09 07:05:05;;;;;;;11.90;5.53;;;3.80;99.90;;;;;;5050787;28;20029;-77
2022/04/09 07:07:31;;;;;;;10.13;6.85;;;3.70;99.90;;;;;;5051854;28;20150;-76
2022/04/09 07:10:09;;;;;;;9.88;5.10;;;3.60;99.90;;;;;;5051454;28;20116;-72
2022/04/09 07:12:36;;;;;;;9.05;5.57;;;3.60;99.90;;;;;;5036105;28;20029;-76
2022/04/09 07:15:03;;;;;;;12.20;6.03;;;3.60;99.90;;;;;;5030676;28;20509;-73
2022/04/09 07:17:29;;;;;;;11.00;6.03;;;3.70;99.90;;;;;;5031934;28;20060;-74
2022/04/09 07:20:05;;;;;;;10.45;5.70;;;3.80;99.90;;;;;;5031688;28;20022;-78
2022/04/09 07:22:31;;;;;;;9.75;5.00;;;3.90;99.90;;;;;;5031887;28;20030;-76
2022/04/09 07:24:56;;;;;;;9.13;5.25;;;3.90;99.90;;;;;;5031487;28;20033;-77
2022/04/09 07:27:43;;;;;;;10.48;4.65;;;4.00;99.90;;;;;;5031149;28;20033;-78
2022/04/09 07:30:19;;;;;;;11.13;5.07;;;4.20;99.90;;;;;;5031517;28;20033;-76
2022/04/09 07:32:46;;;;;;;11.07;5.03;;;4.30;99.90;;;;;;5031647;28;20471;-77
2022/04/09 07:35:12;;;;;;;9.27;4.78;;;4.60;99.90;;;;;;5030893;28;20034;-77
2022/04/09 07:37:49;;;;;;;14.27;5.80;;;4.60;99.90;;;;;;5031445;28;20033;-78
2022/04/09 07:40:17;;;;;;;15.50;5.10;;;4.80;99.90;;;;;;5030599;28;20052;-76
2022/04/09 07:42:44;;;;;;;8.75;4.60;;;4.90;99.90;;;;;;5031752;28;20101;-75
2022/04/09 07:45:12;;;;;;;7.30;4.72;;;5.00;99.90;;;;;;5034098;28;20021;-75
2022/04/09 07:47:38;;;;;;;8.02;4.03;;;5.10;99.90;;;;;;5051674;28;20036;-76
2022/04/09 07:50:10;;;;;;;11.10;4.50;;;5.20;99.90;;;;;;5050868;28;20344;-75
2022/04/09 07:52:42;;;;;;;7.13;3.88;;;5.30;99.90;;;;;;5051702;28;20477;-76
2022/04/09 07:55:11;;;;;;;7.15;3.92;;;5.50;99.90;;;;;;5050516;28;20036;-76
2022/04/09 07:57:38;;;;;;;9.70;3.70;;;5.60;99.90;;;;;;5039398;28;20108;-77
2022/04/09 08:00:04;;;;;;;7.43;4.20;;;5.70;99.90;;;;;;5030620;28;20029;-75
2022/04/09 08:02:30;;;;;;;11.90;3.80;;;5.90;99.90;;;;;;5031277;28;20120;-76
2022/04/09 08:04:56;;;;;;;11.23;3.80;;;6.10;99.90;;;;;;5031716;28;20112;-74
2022/04/09 08:07:21;;;;;;;10.70;3.40;;;6.20;99.90;;;;;;5031684;28;20095;-73
2022/04/09 08:09:47;;;;;;;10.32;3.75;;;6.10;99.90;;;;;;5034513;28;20386;-74
2022/04/09 08:12:12;;;;;;;8.45;3.70;;;6.00;99.90;;;;;;5034101;28;20430;-74
2022/04/09 08:14:42;;;;;;;11.57;3.67;;;5.90;99.90;;;;;;5034728;28;20076;-75
2022/04/09 08:17:08;;;;;;;7.60;3.88;;;5.80;99.90;;;;;;5034258;28;20101;-75
2022/04/09 08:19:35;;;;;;;6.07;3.00;;;5.60;99.90;;;;;;5034448;28;20421;-76
2022/04/09 08:22:04;;;;;;;7.72;4.15;;;5.50;99.90;;;;;;5034546;28;20055;-76
2022/04/09 08:24:30;;;;;;;7.20;3.70;;;5.50;99.90;;;;;;5035178;28;20079;-76
2022/04/09 08:26:56;;;;;;;8.55;3.83;;;5.40;99.90;;;;;;5040145;28;20391;-74
2022/04/09 08:29:23;;;;;;;7.63;2.63;;;5.40;99.90;;;;;;5053708;28;20037;-73
2022/04/09 08:31:48;;;;;;;9.45;3.20;;;5.50;99.90;;;;;;5054846;28;20029;-73
2022/04/09 08:34:15;;;;;;;10.25;3.58;;;5.60;99.90;;;;;;5053780;28;20056;-77
2022/04/09 08:36:41;;;;;;;13.18;4.22;;;5.60;99.90;;;;;;5054335;28;20040;-77
2022/04/09 08:39:07;;;;;;;8.18;2.85;;;5.70;99.90;;;;;;5053894;28;20028;-76
2022/04/09 08:41:36;;;;;;;10.90;3.20;;;5.90;99.90;;;;;;5054628;28;20033;-76
2022/04/09 08:44:03;;;;;;;7.32;3.17;;;6.00;99.90;;;;;;5052818;28;20111;-81
2022/04/09 08:46:30;;;;;;;9.15;2.95;;;6.00;99.90;;;;;;5039549;28;20134;-78
2022/04/09 08:48:58;;;;;;;5.28;3.03;;;6.10;99.90;;;;;;5034164;28;20021;-76
2022/04/09 08:51:24;;;;;;;8.57;3.08;;;6.00;99.90;;;;;;5032944;28;20040;-74
2022/04/09 08:53:50;;;;;;;8.05;3.38;;;6.00;99.90;;;;;;5034269;28;20046;-74
2022/04/09 08:56:18;;;;;;;7.30;3.28;;;6.00;99.90;;;;;;5034767;28;20032;-74
2022/04/09 08:58:44;;;;;;;11.88;3.03;;;6.00;99.90;;;;;;5037440;28;20417;-75
2022/04/09 09:01:10;;;;;;;9.60;3.08;;;6.00;99.90;;;;;;5043704;28;20034;-76
2022/04/09 09:03:36;;;;;;;8.48;3.25;;;6.10;99.90;;;;;;5047706;28;20093;-79
2022/04/09 09:06:21;;;;;;;8.88;3.00;;;6.20;99.90;;;;;;5042553;28;20030;-81
2022/04/09 09:08:47;;;;;;;10.55;3.00;;;6.40;99.90;;;;;;5044823;28;20051;-76
2022/04/09 09:11:13;;;;;;;10.20;3.38;;;6.40;99.90;;;;;;5039202;28;20049;-75
2022/04/09 09:13:54;;;;;;;10.32;2.85;;;6.40;99.90;;;;;;5033957;28;20101;-76
2022/04/09 09:16:25;;;;;;;7.88;3.05;;;6.40;99.90;;;;;;5034105;28;20090;-77
2022/04/09 09:18:53;;;;;;;9.05;3.30;;;6.40;99.90;;;;;;5032114;28;20171;-80
2022/04/09 09:21:23;;;;;;;8.35;2.80;;;6.40;99.90;;;;;;5033891;28;20029;-78
2022/04/09 09:23:52;;;;;;;9.80;3.88;;;6.40;99.90;;;;;;5042491;28;20507;-76
2022/04/09 09:26:24;;;;;;;10.40;2.85;;;6.60;99.90;;;;;;5043038;28;20038;-71
2022/04/09 09:28:56;;;;;;;7.05;2.40;;;6.60;99.90;;;;;;5050859;28;20029;-79
2022/04/09 09:31:43;;;;;;;10.88;2.60;;;6.70;99.90;;;;;;5041140;28;20029;-80
2022/04/09 09:34:13;;;;;;;6.88;2.42;;;7.00;99.90;;;;;;5041365;28;20057;-81
2022/04/09 09:36:43;;;;;;;12.15;2.60;;;7.40;99.90;;;;;;5044219;28;20041;-73
2022/04/09 09:39:11;;;;;;;6.63;2.50;;;7.40;99.90;;;;;;5038921;28;20041;-83
2022/04/09 09:41:59;;;;;;;6.97;2.70;;;7.60;99.90;;;;;;5039961;28;20494;-79
2022/04/09 09:44:34;;;;;;;6.13;2.25;;;7.80;99.90;;;;;;5042097;28;20025;-76
2022/04/09 09:47:07;;;;;;;12.20;2.38;;;7.90;99.90;;;;;;5040157;28;20029;-72
2022/04/09 09:49:37;;;;;;;10.43;3.33;;;;;;;;;;5047693;28;20040;-74
2022/04/09 09:52:09;;;;;;;8.13;2.53;;;8.40;99.90;;;;;;5052519;28;20021;-76
2022/04/09 09:54:54;;;;;;;8.25;2.50;;;8.50;99.90;;;;;;5050571;28;20047;-72
2022/04/09 09:57:20;;;;;;;8.43;2.50;;;8.50;99.90;;;;;;5052264;28;20060;-73
2022/04/09 09:59:48;;;;;;;5.75;2.15;;;8.40;99.90;;;;;;5053063;28;20056;-73
2022/04/09 10:02:19;;;;;;;6.38;1.90;;;8.30;99.90;;;;;;5052017;28;20366;-74
2022/04/09 10:04:46;;;;;;;10.73;2.90;;;8.30;99.90;;;;;;5051052;28;20072;-75
2022/04/09 10:07:15;;;;;;;11.95;2.30;;;8.40;99.90;;;;;;5037318;28;20033;-74
2022/04/09 10:09:42;;;;;;;9.07;2.40;;;8.50;99.90;;;;;;5050727;28;20029;-75
2022/04/09 10:12:28;;;;;;;9.35;2.30;;;8.60;99.90;;;;;;5051663;28;20104;-76
2022/04/09 10:14:57;;;;;;;10.60;2.60;;;8.50;99.10;;;;;;5041192;28;20040;-76
2022/04/09 10:17:23;;;;;;;7.78;2.05;;;8.50;98.60;;;;;;5043045;28;20025;-77
2022/04/09 10:20:01;;;;;;;10.52;2.17;;;8.40;97.80;;;;;;5043342;28;20036;-75
2022/04/09 10:22:39;;;;;;;5.30;1.90;;;8.20;97.10;;;;;;5039467;28;20450;-76
2022/04/09 10:25:06;;;;;;;6.85;1.98;;;7.90;98.40;;;;;;5032364;28;20040;-77
2022/04/09 10:27:37;;;;;;;11.63;2.17;;;7.70;99.90;;;;;;5031934;28;20033;-76
2022/04/09 10:30:16;;;;;;;10.02;2.17;;;7.70;99.90;;;;;;5032819;28;20034;-77
2022/04/09 10:32:48;;;;;;;6.47;2.40;;;7.70;99.40;;;;;;5032434;28;20482;-76
2022/04/09 10:35:38;;;;;;;8.00;1.90;;;7.80;99.90;;;;;;5031718;28;20079;-76
2022/04/09 10:38:10;;;;;;;4.28;1.77;;;7.90;97.40;;;;;;5032188;28;20038;-77
2022/04/09 10:41:02;;;;;;;6.57;1.77;;;8.00;97.70;;;;;;5032383;28;20029;-76
2022/04/09 10:43:28;;;;;;;10.45;2.00;;;8.40;99.30;;;;;;5002957;28;20841;-75
2022/04/09 10:46:00;;;;;;;10.48;2.38;;;8.70;96.80;;;;;;5041821;28;20425;-75
2022/04/09 10:48:30;;;;;;;6.22;1.95;;;8.70;96.40;;;;;;5051102;28;20024;-76
2022/04/09 10:51:12;;;;;;;7.43;1.90;;;8.60;97.20;;;;;;5051892;28;20056;-76
2022/04/09 10:53:41;;;;;;;8.68;2.00;;;8.50;97.30;;;;;;5051983;28;20470;-76
2022/04/09 10:56:32;;;;;;;9.00;2.20;;;8.60;96.70;;;;;;5050388;28;20371;-77
2022/04/09 10:59:08;;;;;;;6.22;1.95;;;8.70;95.40;;;;;;5052085;28;20040;-76
2022/04/09 11:01:46;;;;;;;6.75;2.00;;;8.50;93.20;;;;;;5050511;28;20025;-75
2022/04/09 11:04:34;;;;;;;10.40;2.50;;;8.30;94.20;;;;;;5040027;28;20025;-76
2022/04/09 11:07:14;;;;;;;8.20;2.00;;;8.10;95.30;;;;;;5042354;28;20072;-75
2022/04/09 11:09:52;;;;;;;7.68;1.90;;;8.00;96.10;;;;;;5042286;28;20029;-76
2022/04/09 11:12:38;;;;;;;13.00;2.72;;;7.80;95.50;;;;;;5043775;28;20102;-76
2022/04/09 11:15:08;;;;;;;10.25;2.35;;;7.80;96.70;;;;;;5021235;28;20144;-75
2022/04/09 11:17:48;;;;;;;8.87;2.23;;;7.60;95.30;;;;;;5032291;28;20029;-76
2022/04/09 11:20:17;;;;;;;;;;;7.50;95.90;;;;;;5031600;28;20112;-74
2022/04/09 11:22:48;;;;;;;11.13;1.93;;;7.70;96.40;;;;;;5031561;28;20281;-76
2022/04/09 11:25:19;;;;;;;5.65;1.60;;;8.10;93.60;;;;;;5031386;28;20268;-76
2022/04/09 11:27:45;;;;;;;6.47;1.90;;;8.30;93.40;;;;;;5031738;28;20080;-76
2022/04/09 11:30:11;;;;;;;6.03;1.63;;;8.30;92.50;;;;;;5030708;28;20025;-74
2022/04/09 11:32:37;;;;;;;11.13;1.90;;;8.40;93.00;;;;;;5031823;28;20032;-74
2022/04/09 11:35:08;;;;;;;8.18;1.70;;;8.60;91.10;;;;;;5031417;28;20076;-74
2022/04/09 11:37:39;;;;;;;4.40;1.70;;;8.80;90.80;;;;;;5031924;28;20029;-76
2022/04/09 11:40:06;;;;;;;9.07;2.38;;;9.30;90.40;;;;;;5031621;28;20383;-76
2022/04/09 11:42:53;;;;;;;4.40;1.52;;;9.80;86.80;;;;;;5031956;28;20033;-76
2022/04/09 11:45:23;;;;;;;5.43;1.90;;;;;;;;;;5047411;28;20031;-76
2022/04/09 11:47:50;;;;;;;6.70;1.65;;;10.80;79.10;;;;;;5044993;28;20045;-74
2022/04/09 11:50:17;;;;;;;5.47;1.45;;;11.10;74.70;;;;;;5045252;28;20022;-74
2022/04/09 11:52:43;;;;;;;5.70;1.83;;;11.50;74.20;;;;;;5046393;28;20061;-74
2022/04/09 11:55:14;;;;;;;7.75;2.53;;;11.70;73.40;;;;;;5046107;28;20024;-75
2022/04/09 11:57:51;;;;;;;7.82;2.50;;;11.40;73.70;;;;;;5055635;28;20033;-74
2022/04/09 12:00:17;;;;;;;7.10;2.20;;;10.10;72.60;;;;;;5051816;28;20026;-74
2022/04/09 12:02:43;;;;;;;3.47;1.67;;;9.30;77.00;;;;;;5042235;28;20037;-73
2022/04/09 12:05:10;;;;;;;9.25;2.58;;;9.10;80.20;;;;;;5040594;28;20037;-73
2022/04/09 12:07:44;;;;;;;7.60;2.40;;;8.80;78.60;;;;;;5040403;28;20033;-76
2022/04/09 12:10:26;;;;;;;10.15;2.30;;;8.40;82.20;;;;;;5038920;28;20595;-75
2022/04/09 12:13:00;;;;;;;15.27;2.20;;;8.40;85.70;;;;;;5034650;28;20031;-74
2022/04/09 12:15:30;;;;;;;6.80;1.67;;;8.40;82.20;;;;;;5034006;28;20450;-73
2022/04/09 12:17:56;;;;;;;7.47;1.83;;;8.60;85.20;;;;;;5035167;28;20056;-73
2022/04/09 12:20:34;;;;;;;5.65;1.75;;;8.70;85.70;;;;;;5033987;28;20463;-74
2022/04/09 12:23:00;;;;;;;6.47;1.45;;;9.10;82.50;;;;;;5034860;28;20371;-74
2022/04/09 12:25:42;;;;;;;6.28;1.88;;;9.70;77.00;;;;;;5034015;28;20057;-74
2022/04/09 12:28:24;;;;;;;7.95;2.20;;;9.40;76.50;;;;;;5033610;28;20030;-74
2022/04/09 12:30:53;;;;;;;6.15;2.00;;;9.60;80.80;;;;;;5034856;28;20033;-73
2022/04/09 12:33:20;;;;;;;3.05;1.50;;;10.20;77.30;;;;;;5032704;28;20033;-75
2022/04/09 12:35:46;;;;;;;8.05;2.05;;;10.90;76.60;;;;;;5034355;28;20116;-73
2022/04/09 12:38:28;;;;;;;5.28;1.52;;;11.70;73.60;;;;;;5033934;28;20120;-73
2022/04/09 12:41:00;;;;;;;7.05;2.20;;;12.00;69.70;;;;;;5034352;28;20025;-72
2022/04/09 12:43:32;;;;;;;7.40;2.30;;;12.90;68.40;;;;;;5033428;28;20022;-75
2022/04/09 12:46:11;;;;;;;6.57;2.08;;;13.20;66.50;;;;;;5044449;28;20112;-72
2022/04/09 12:48:38;;;;;;;6.93;1.60;;;13.00;63.70;;;;;;5055005;28;20021;-72
2022/04/09 12:51:05;;;;;;;5.53;1.48;;;12.80;64.20;;;;;;5055369;28;20056;-75
2022/04/09 12:53:30;;;;;;;3.83;1.30;;;12.60;62.60;;;;;;5052889;28;20473;-74
2022/04/09 12:55:56;;;;;;;6.30;1.92;;;12.20;61.20;;;;;;5043157;28;20087;-75
2022/04/09 12:58:21;;;;;;;6.53;2.33;;;11.90;62.70;;;;;;5053235;28;20029;-75